sensor_id;sensor_type;location;lat;lon;timestamp;P1;durP1;ratioP1;P2;durP2;ratioP2
49241;SDS011;35079;52.704;13.814;2022-11-20T00:01:05;18.02;;;11.70;;
49241;SDS011;35079;52.704;13.814;2022-11-20T00:03:34;18.70;;;11.90;;
49241;SDS011;35079;52.704;13.814;2022-11-20T00:06:04;21.10;;;12.75;;
49241;SDS011;35079;52.704;13.814;2022-11-20T00:08:32;18.48;;;11.65;;
49241;SDS011;35079;52.704;13.814;2022-11-20T00:11:02;17.00;;;11.27;;
49241;SDS011;35079;52.704;13.814;2022-11-20T00:13:32;16.87;;;11.33;;
49241;SDS011;35079;52.704;13.814;2022-11-20T00:15:58;16.42;;;11.15;;
49241;SDS011;35079;52.704;13.814;2022-11-20T00:18:25;20.85;;;12.82;;
49241;SDS011;35079;52.704;13.814;2022-11-20T00:20:51;18.70;;;12.20;;
49241;SDS011;35079;52.704;13.814;2022-11-20T00:23:16;17.30;;;12.00;;
49241;SDS011;35079;52.704;13.814;2022-11-20T00:25:42;17.90;;;12.18;;
49241;SDS011;35079;52.704;13.814;2022-11-20T00:28:08;18.65;;;12.73;;
49241;SDS011;35079;52.704;13.814;2022-11-20T00:30:33;19.52;;;12.80;;
49241;SDS011;35079;52.704;13.814;2022-11-20T00:32:59;17.65;;;12.55;;
49241;SDS011;35079;52.704;13.814;2022-11-20T00:35:24;19.15;;;12.52;;
49241;SDS011;35079;52.704;13.814;2022-11-20T00:37:50;19.67;;;13.30;;
49241;SDS011;35079;52.704;13.814;2022-11-20T00:40:16;19.05;;;13.00;;
49241;SDS011;35079;52.704;13.814;2022-11-20T00:42:41;22.55;;;14.27;;
49241;SDS011;35079;52.704;13.814;2022-11-20T00:45:07;21.42;;;13.57;;
49241;SDS011;35079;52.704;13.814;2022-11-20T00:47:33;20.40;;;13.52;;
49241;SDS011;35079;52.704;13.814;2022-11-20T00:49:58;22.67;;;14.60;;
49241;SDS011;35079;52.704;13.814;2022-11-20T00:52:24;22.05;;;14.73;;
49241;SDS011;35079;52.704;13.814;2022-11-20T00:54:49;24.10;;;14.68;;
49241;SDS011;35079;52.704;13.814;2022-11-20T00:57:15;25.17;;;14.98;;
49241;SDS011;35079;52.704;13.814;2022-11-20T00:59:40;23.38;;;14.82;;
49241;SDS011;35079;52.704;13.814;2022-11-20T01:02:06;21.83;;;14.10;;
49241;SDS011;35079;52.704;13.814;2022-11-20T01:04:32;23.98;;;14.73;;
49241;SDS011;35079;52.704;13.814;2022-11-20T01:06:57;24.52;;;14.82;;
49241;SDS011;35079;52.704;13.814;2022-11-20T01:09:23;23.70;;;14.23;;
49241;SDS011;35079;52.704;13.814;2022-11-20T01:11:48;25.13;;;14.18;;
49241;SDS011;35079;52.704;13.814;2022-11-20T01:14:15;23.05;;;14.52;;
49241;SDS011;35079;52.704;13.814;2022-11-20T01:16:45;21.42;;;13.88;;
49241;SDS011;35079;52.704;13.814;2022-11-20T01:19:17;22.42;;;13.68;;
49241;SDS011;35079;52.704;13.814;2022-11-20T01:21:45;22.42;;;14.15;;
49241;SDS011;35079;52.704;13.814;2022-11-20T01:24:14;24.70;;;14.75;;
49241;SDS011;35079;52.704;13.814;2022-11-20T01:26:41;22.15;;;14.55;;
49241;SDS011;35079;52.704;13.814;2022-11-20T01:29:13;22.88;;;14.18;;
49241;SDS011;35079;52.704;13.814;2022-11-20T01:31:40;23.70;;;14.38;;
49241;SDS011;35079;52.704;13.814;2022-11-20T01:34:08;26.48;;;14.25;;
49241;SDS011;35079;52.704;13.814;2022-11-20T01:36:36;22.25;;;13.65;;
49241;SDS011;35079;52.704;13.814;2022-11-20T01:39:03;23.33;;;13.35;;
49241;SDS011;35079;52.704;13.814;2022-11-20T01:41:35;27.20;;;14.57;;
49241;SDS011;35079;52.704;13.814;2022-11-20T01:44:22;22.98;;;13.73;;
49241;SDS011;35079;52.704;13.814;2022-11-20T01:47:07;24.35;;;13.95;;
49241;SDS011;35079;52.704;13.814;2022-11-20T01:49:40;23.40;;;13.27;;
49241;SDS011;35079;52.704;13.814;2022-11-20T01:52:15;23.98;;;13.45;;
49241;SDS011;35079;52.704;13.814;2022-11-20T01:54:56;21.92;;;13.38;;
49241;SDS011;35079;52.704;13.814;2022-11-20T01:57:36;24.38;;;12.73;;
49241;SDS011;35079;52.704;13.814;2022-11-20T02:00:08;23.73;;;13.95;;
49241;SDS011;35079;52.704;13.814;2022-11-20T02:02:36;22.38;;;13.38;;
49241;SDS011;35079;52.704;13.814;2022-11-20T02:05:08;23.27;;;14.15;;
49241;SDS011;35079;52.704;13.814;2022-11-20T02:07:45;25.05;;;14.40;;
49241;SDS011;35079;52.704;13.814;2022-11-20T02:10:12;24.08;;;14.68;;
49241;SDS011;35079;52.704;13.814;2022-11-20T02:12:38;24.08;;;14.75;;
49241;SDS011;35079;52.704;13.814;2022-11-20T02:15:22;25.73;;;14.25;;
49241;SDS011;35079;52.704;13.814;2022-11-20T02:17:47;24.10;;;14.00;;
49241;SDS011;35079;52.704;13.814;2022-11-20T02:20:13;23.60;;;14.25;;
49241;SDS011;35079;52.704;13.814;2022-11-20T02:22:50;23.02;;;14.02;;
49241;SDS011;35079;52.704;13.814;2022-11-20T02:25:19;26.80;;;14.80;;
49241;SDS011;35079;52.704;13.814;2022-11-20T02:27:45;27.88;;;15.05;;
49241;SDS011;35079;52.704;13.814;2022-11-20T02:30:26;27.35;;;14.88;;
49241;SDS011;35079;52.704;13.814;2022-11-20T02:32:51;25.98;;;13.85;;
49241;SDS011;35079;52.704;13.814;2022-11-20T02:37:49;26.77;;;14.75;;
49241;SDS011;35079;52.704;13.814;2022-11-20T02:40:18;27.73;;;14.82;;
49241;SDS011;35079;52.704;13.814;2022-11-20T02:42:44;26.50;;;14.05;;
49241;SDS011;35079;52.704;13.814;2022-11-20T02:45:10;28.77;;;13.90;;
49241;SDS011;35079;52.704;13.814;2022-11-20T02:47:36;28.30;;;13.75;;
49241;SDS011;35079;52.704;13.814;2022-11-20T02:50:01;22.65;;;13.27;;
49241;SDS011;35079;52.704;13.814;2022-11-20T02:52:28;25.83;;;13.98;;
49241;SDS011;35079;52.704;13.814;2022-11-20T02:54:53;25.67;;;14.15;;
49241;SDS011;35079;52.704;13.814;2022-11-20T02:57:19;24.73;;;13.90;;
49241;SDS011;35079;52.704;13.814;2022-11-20T02:59:44;27.23;;;13.38;;
49241;SDS011;35079;52.704;13.814;2022-11-20T03:02:10;28.35;;;14.75;;
49241;SDS011;35079;52.704;13.814;2022-11-20T03:04:36;24.27;;;14.48;;
49241;SDS011;35079;52.704;13.814;2022-11-20T03:07:01;29.02;;;15.27;;
49241;SDS011;35079;52.704;13.814;2022-11-20T03:09:27;25.33;;;13.60;;
49241;SDS011;35079;52.704;13.814;2022-11-20T03:11:53;27.42;;;14.00;;
49241;SDS011;35079;52.704;13.814;2022-11-20T03:14:19;24.92;;;13.57;;
49241;SDS011;35079;52.704;13.814;2022-11-20T03:16:44;28.63;;;14.30;;
49241;SDS011;35079;52.704;13.814;2022-11-20T03:19:11;26.88;;;14.15;;
49241;SDS011;35079;52.704;13.814;2022-11-20T03:21:37;25.83;;;13.85;;
49241;SDS011;35079;52.704;13.814;2022-11-20T03:24:02;26.80;;;13.55;;
49241;SDS011;35079;52.704;13.814;2022-11-20T03:26:29;25.45;;;13.23;;
49241;SDS011;35079;52.704;13.814;2022-11-20T03:28:55;29.02;;;14.57;;
49241;SDS011;35079;52.704;13.814;2022-11-20T03:31:24;27.40;;;14.20;;
49241;SDS011;35079;52.704;13.814;2022-11-20T03:33:53;26.33;;;13.55;;
49241;SDS011;35079;52.704;13.814;2022-11-20T03:36:20;26.05;;;15.10;;
49241;SDS011;35079;52.704;13.814;2022-11-20T03:38:46;24.35;;;13.68;;
49241;SDS011;35079;52.704;13.814;2022-11-20T03:41:14;25.27;;;13.98;;
49241;SDS011;35079;52.704;13.814;2022-11-20T03:43:50;23.27;;;13.45;;
49241;SDS011;35079;52.704;13.814;2022-11-20T03:46:17;24.63;;;13.32;;
49241;SDS011;35079;52.704;13.814;2022-11-20T03:48:43;24.13;;;14.00;;
49241;SDS011;35079;52.704;13.814;2022-11-20T03:51:13;26.85;;;14.38;;
49241;SDS011;35079;52.704;13.814;2022-11-20T03:53:39;26.38;;;15.27;;
49241;SDS011;35079;52.704;13.814;2022-11-20T03:56:07;22.83;;;13.43;;
49241;SDS011;35079;52.704;13.814;2022-11-20T03:58:34;24.40;;;14.82;;
49241;SDS011;35079;52.704;13.814;2022-11-20T04:01:14;25.77;;;13.95;;
49241;SDS011;35079;52.704;13.814;2022-11-20T04:03:44;25.02;;;14.95;;
49241;SDS011;35079;52.704;13.814;2022-11-20T04:06:12;27.17;;;15.25;;
49241;SDS011;35079;52.704;13.814;2022-11-20T04:08:39;22.92;;;14.40;;
49241;SDS011;35079;52.704;13.814;2022-11-20T04:14:11;28.05;;;15.73;;
49241;SDS011;35079;52.704;13.814;2022-11-20T04:16:38;27.27;;;16.08;;
49241;SDS011;35079;52.704;13.814;2022-11-20T04:19:04;30.98;;;15.90;;
49241;SDS011;35079;52.704;13.814;2022-11-20T04:21:31;27.60;;;15.55;;
49241;SDS011;35079;52.704;13.814;2022-11-20T04:23:57;28.83;;;15.63;;
49241;SDS011;35079;52.704;13.814;2022-11-20T04:26:24;29.33;;;15.48;;
49241;SDS011;35079;52.704;13.814;2022-11-20T04:28:50;28.63;;;16.40;;
49241;SDS011;35079;52.704;13.814;2022-11-20T04:31:18;31.55;;;16.92;;
49241;SDS011;35079;52.704;13.814;2022-11-20T04:33:45;28.20;;;15.73;;
49241;SDS011;35079;52.704;13.814;2022-11-20T04:36:17;28.85;;;15.35;;
49241;SDS011;35079;52.704;13.814;2022-11-20T04:38:45;22.58;;;12.45;;
49241;SDS011;35079;52.704;13.814;2022-11-20T04:41:13;25.33;;;15.45;;
49241;SDS011;35079;52.704;13.814;2022-11-20T04:43:41;29.50;;;16.38;;
49241;SDS011;35079;52.704;13.814;2022-11-20T04:46:15;29.60;;;16.27;;
49241;SDS011;35079;52.704;13.814;2022-11-20T04:48:44;28.27;;;16.08;;
49241;SDS011;35079;52.704;13.814;2022-11-20T04:51:10;30.58;;;16.08;;
49241;SDS011;35079;52.704;13.814;2022-11-20T04:53:37;27.75;;;16.35;;
49241;SDS011;35079;52.704;13.814;2022-11-20T04:56:03;27.83;;;16.08;;
49241;SDS011;35079;52.704;13.814;2022-11-20T04:58:31;25.75;;;14.63;;
49241;SDS011;35079;52.704;13.814;2022-11-20T05:01:00;26.60;;;16.08;;
49241;SDS011;35079;52.704;13.814;2022-11-20T05:03:31;29.55;;;16.50;;
49241;SDS011;35079;52.704;13.814;2022-11-20T05:05:59;31.15;;;16.75;;
49241;SDS011;35079;52.704;13.814;2022-11-20T05:08:26;26.75;;;15.65;;
49241;SDS011;35079;52.704;13.814;2022-11-20T05:10:52;31.73;;;16.15;;
49241;SDS011;35079;52.704;13.814;2022-11-20T05:13:17;26.90;;;15.65;;
49241;SDS011;35079;52.704;13.814;2022-11-20T05:15:43;27.77;;;16.20;;
49241;SDS011;35079;52.704;13.814;2022-11-20T05:18:09;27.25;;;16.15;;
49241;SDS011;35079;52.704;13.814;2022-11-20T05:20:34;28.90;;;15.35;;
49241;SDS011;35079;52.704;13.814;2022-11-20T05:23:01;31.10;;;14.88;;
49241;SDS011;35079;52.704;13.814;2022-11-20T05:25:27;27.42;;;15.48;;
49241;SDS011;35079;52.704;13.814;2022-11-20T05:27:52;26.05;;;15.35;;
49241;SDS011;35079;52.704;13.814;2022-11-20T05:30:18;24.65;;;15.20;;
49241;SDS011;35079;52.704;13.814;2022-11-20T05:32:44;27.85;;;14.90;;
49241;SDS011;35079;52.704;13.814;2022-11-20T05:35:09;30.25;;;16.23;;
49241;SDS011;35079;52.704;13.814;2022-11-20T05:37:35;25.83;;;15.18;;
49241;SDS011;35079;52.704;13.814;2022-11-20T05:40:01;27.83;;;16.75;;
49241;SDS011;35079;52.704;13.814;2022-11-20T05:42:29;27.83;;;15.52;;
49241;SDS011;35079;52.704;13.814;2022-11-20T05:44:59;30.60;;;15.85;;
49241;SDS011;35079;52.704;13.814;2022-11-20T05:47:26;28.92;;;16.65;;
49241;SDS011;35079;52.704;13.814;2022-11-20T05:49:52;27.00;;;15.98;;
49241;SDS011;35079;52.704;13.814;2022-11-20T05:52:18;30.20;;;16.27;;
49241;SDS011;35079;52.704;13.814;2022-11-20T05:54:44;29.70;;;16.08;;
49241;SDS011;35079;52.704;13.814;2022-11-20T05:57:10;28.77;;;16.38;;
49241;SDS011;35079;52.704;13.814;2022-11-20T05:59:43;31.70;;;17.00;;
49241;SDS011;35079;52.704;13.814;2022-11-20T06:02:09;28.48;;;17.48;;
49241;SDS011;35079;52.704;13.814;2022-11-20T06:04:35;28.98;;;16.48;;
49241;SDS011;35079;52.704;13.814;2022-11-20T06:07:00;30.23;;;16.70;;
49241;SDS011;35079;52.704;13.814;2022-11-20T06:09:27;30.00;;;16.65;;
49241;SDS011;35079;52.704;13.814;2022-11-20T06:11:53;31.67;;;15.68;;
49241;SDS011;35079;52.704;13.814;2022-11-20T06:14:18;27.67;;;16.42;;
49241;SDS011;35079;52.704;13.814;2022-11-20T06:16:44;26.63;;;15.02;;
49241;SDS011;35079;52.704;13.814;2022-11-20T06:19:09;28.17;;;16.13;;
49241;SDS011;35079;52.704;13.814;2022-11-20T06:21:35;29.58;;;15.27;;
49241;SDS011;35079;52.704;13.814;2022-11-20T06:24:01;28.50;;;15.07;;
49241;SDS011;35079;52.704;13.814;2022-11-20T06:26:26;26.48;;;15.65;;
49241;SDS011;35079;52.704;13.814;2022-11-20T06:28:53;27.98;;;15.05;;
49241;SDS011;35079;52.704;13.814;2022-11-20T06:31:21;28.13;;;16.20;;
49241;SDS011;35079;52.704;13.814;2022-11-20T06:33:49;27.55;;;15.23;;
49241;SDS011;35079;52.704;13.814;2022-11-20T06:36:15;27.48;;;16.48;;
49241;SDS011;35079;52.704;13.814;2022-11-20T06:38:43;27.85;;;15.23;;
49241;SDS011;35079;52.704;13.814;2022-11-20T06:41:13;25.48;;;16.25;;
49241;SDS011;35079;52.704;13.814;2022-11-20T06:43:40;23.63;;;15.40;;
49241;SDS011;35079;52.704;13.814;2022-11-20T06:46:06;28.02;;;15.68;;
49241;SDS011;35079;52.704;13.814;2022-11-20T06:48:34;24.92;;;15.85;;
49241;SDS011;35079;52.704;13.814;2022-11-20T06:50:59;28.60;;;15.52;;
49241;SDS011;35079;52.704;13.814;2022-11-20T06:53:28;23.17;;;14.70;;
49241;SDS011;35079;52.704;13.814;2022-11-20T06:55:55;27.65;;;15.57;;
49241;SDS011;35079;52.704;13.814;2022-11-20T06:58:22;24.67;;;14.88;;
49241;SDS011;35079;52.704;13.814;2022-11-20T07:00:48;27.35;;;15.65;;
49241;SDS011;35079;52.704;13.814;2022-11-20T07:03:14;28.25;;;15.02;;
49241;SDS011;35079;52.704;13.814;2022-11-20T07:05:40;28.48;;;14.48;;
49241;SDS011;35079;52.704;13.814;2022-11-20T07:08:05;25.95;;;15.13;;
49241;SDS011;35079;52.704;13.814;2022-11-20T07:10:36;22.92;;;14.07;;
49241;SDS011;35079;52.704;13.814;2022-11-20T07:13:01;23.88;;;15.07;;
49241;SDS011;35079;52.704;13.814;2022-11-20T07:15:27;23.27;;;14.40;;
49241;SDS011;35079;52.704;13.814;2022-11-20T07:17:52;27.23;;;15.02;;
49241;SDS011;35079;52.704;13.814;2022-11-20T07:20:18;23.20;;;14.18;;
49241;SDS011;35079;52.704;13.814;2022-11-20T07:22:44;24.83;;;14.63;;
49241;SDS011;35079;52.704;13.814;2022-11-20T07:25:09;26.95;;;14.57;;
49241;SDS011;35079;52.704;13.814;2022-11-20T07:27:35;26.13;;;16.00;;
49241;SDS011;35079;52.704;13.814;2022-11-20T07:30:01;22.80;;;13.68;;
49241;SDS011;35079;52.704;13.814;2022-11-20T07:32:28;22.40;;;14.23;;
49241;SDS011;35079;52.704;13.814;2022-11-20T07:34:53;23.95;;;14.73;;
49241;SDS011;35079;52.704;13.814;2022-11-20T07:37:19;23.27;;;14.50;;
49241;SDS011;35079;52.704;13.814;2022-11-20T07:39:44;25.95;;;15.00;;
49241;SDS011;35079;52.704;13.814;2022-11-20T07:42:10;25.73;;;15.13;;
49241;SDS011;35079;52.704;13.814;2022-11-20T07:44:37;25.55;;;15.27;;
49241;SDS011;35079;52.704;13.814;2022-11-20T07:47:03;23.85;;;15.15;;
49241;SDS011;35079;52.704;13.814;2022-11-20T07:49:28;22.55;;;14.45;;
49241;SDS011;35079;52.704;13.814;2022-11-20T07:51:54;25.92;;;15.32;;
49241;SDS011;35079;52.704;13.814;2022-11-20T07:54:20;25.27;;;15.45;;
49241;SDS011;35079;52.704;13.814;2022-11-20T07:56:46;25.77;;;15.65;;
49241;SDS011;35079;52.704;13.814;2022-11-20T07:59:12;23.13;;;14.38;;
49241;SDS011;35079;52.704;13.814;2022-11-20T08:01:42;23.70;;;14.38;;
49241;SDS011;35079;52.704;13.814;2022-11-20T08:04:08;23.45;;;14.48;;
49241;SDS011;35079;52.704;13.814;2022-11-20T08:06:34;28.23;;;15.07;;
49241;SDS011;35079;52.704;13.814;2022-11-20T08:09:00;26.27;;;15.50;;
49241;SDS011;35079;52.704;13.814;2022-11-20T08:11:26;23.77;;;15.40;;
49241;SDS011;35079;52.704;13.814;2022-11-20T08:14:11;24.90;;;14.77;;
49241;SDS011;35079;52.704;13.814;2022-11-20T08:16:42;27.48;;;15.25;;
49241;SDS011;35079;52.704;13.814;2022-11-20T08:19:10;22.42;;;14.05;;
49241;SDS011;35079;52.704;13.814;2022-11-20T08:21:36;25.10;;;14.48;;
49241;SDS011;35079;52.704;13.814;2022-11-20T08:24:02;22.35;;;13.57;;
49241;SDS011;35079;52.704;13.814;2022-11-20T08:26:28;23.13;;;14.95;;
49241;SDS011;35079;52.704;13.814;2022-11-20T08:28:54;24.48;;;14.60;;
49241;SDS011;35079;52.704;13.814;2022-11-20T08:31:21;22.80;;;14.55;;
49241;SDS011;35079;52.704;13.814;2022-11-20T08:33:47;25.17;;;14.23;;
49241;SDS011;35079;52.704;13.814;2022-11-20T08:36:13;22.83;;;13.82;;
49241;SDS011;35079;52.704;13.814;2022-11-20T08:38:39;23.77;;;15.27;;
49241;SDS011;35079;52.704;13.814;2022-11-20T08:41:04;22.42;;;14.93;;
49241;SDS011;35079;52.704;13.814;2022-11-20T08:43:49;22.77;;;14.33;;
49241;SDS011;35079;52.704;13.814;2022-11-20T08:46:15;22.70;;;13.75;;
49241;SDS011;35079;52.704;13.814;2022-11-20T08:48:47;22.38;;;14.00;;
49241;SDS011;35079;52.704;13.814;2022-11-20T08:51:13;22.65;;;14.55;;
49241;SDS011;35079;52.704;13.814;2022-11-20T08:53:39;23.23;;;13.88;;
49241;SDS011;35079;52.704;13.814;2022-11-20T08:56:05;22.00;;;14.20;;
49241;SDS011;35079;52.704;13.814;2022-11-20T08:58:31;23.88;;;14.80;;
49241;SDS011;35079;52.704;13.814;2022-11-20T09:00:57;24.20;;;14.50;;
49241;SDS011;35079;52.704;13.814;2022-11-20T09:03:22;22.42;;;13.73;;
49241;SDS011;35079;52.704;13.814;2022-11-20T09:05:48;22.73;;;14.68;;
49241;SDS011;35079;52.704;13.814;2022-11-20T09:08:14;24.50;;;15.65;;
49241;SDS011;35079;52.704;13.814;2022-11-20T09:10:39;24.42;;;14.75;;
49241;SDS011;35079;52.704;13.814;2022-11-20T09:13:05;24.10;;;14.95;;
49241;SDS011;35079;52.704;13.814;2022-11-20T09:15:31;26.63;;;15.05;;
49241;SDS011;35079;52.704;13.814;2022-11-20T09:17:59;26.42;;;15.23;;
49241;SDS011;35079;52.704;13.814;2022-11-20T09:20:26;26.20;;;16.77;;
49241;SDS011;35079;52.704;13.814;2022-11-20T09:22:54;26.45;;;15.60;;
49241;SDS011;35079;52.704;13.814;2022-11-20T09:25:20;25.80;;;16.33;;
49241;SDS011;35079;52.704;13.814;2022-11-20T09:27:46;26.13;;;15.48;;
49241;SDS011;35079;52.704;13.814;2022-11-20T09:30:12;25.88;;;16.88;;
49241;SDS011;35079;52.704;13.814;2022-11-20T09:32:39;26.35;;;14.82;;
49241;SDS011;35079;52.704;13.814;2022-11-20T09:35:05;25.65;;;15.60;;
49241;SDS011;35079;52.704;13.814;2022-11-20T09:37:36;28.67;;;17.05;;
49241;SDS011;35079;52.704;13.814;2022-11-20T09:40:01;23.65;;;15.40;;
49241;SDS011;35079;52.704;13.814;2022-11-20T09:45:30;24.35;;;14.77;;
49241;SDS011;35079;52.704;13.814;2022-11-20T09:53:19;20.80;;;14.07;;
49241;SDS011;35079;52.704;13.814;2022-11-20T09:55:48;25.10;;;15.10;;
49241;SDS011;35079;52.704;13.814;2022-11-20T10:01:09;21.10;;;13.73;;
49241;SDS011;35079;52.704;13.814;2022-11-20T10:06:30;23.30;;;14.40;;
49241;SDS011;35079;52.704;13.814;2022-11-20T10:09:16;24.88;;;15.75;;
49241;SDS011;35079;52.704;13.814;2022-11-20T10:12:12;25.27;;;15.13;;
49241;SDS011;35079;52.704;13.814;2022-11-20T10:20:01;24.40;;;15.10;;
49241;SDS011;35079;52.704;13.814;2022-11-20T10:25:19;24.45;;;16.35;;
49241;SDS011;35079;52.704;13.814;2022-11-20T10:30:29;24.52;;;16.17;;
49241;SDS011;35079;52.704;13.814;2022-11-20T10:33:08;22.33;;;14.02;;
49241;SDS011;35079;52.704;13.814;2022-11-20T10:35:44;23.23;;;14.95;;
49241;SDS011;35079;52.704;13.814;2022-11-20T10:38:20;24.27;;;14.73;;
49241;SDS011;35079;52.704;13.814;2022-11-20T10:41:01;23.95;;;15.13;;
49241;SDS011;35079;52.704;13.814;2022-11-20T10:43:46;25.00;;;14.43;;
49241;SDS011;35079;52.704;13.814;2022-11-20T10:46:17;25.08;;;15.55;;
49241;SDS011;35079;52.704;13.814;2022-11-20T10:48:47;27.33;;;15.82;;
49241;SDS011;35079;52.704;13.814;2022-11-20T10:53:58;23.25;;;15.10;;
49241;SDS011;35079;52.704;13.814;2022-11-20T10:59:27;24.55;;;15.35;;
49241;SDS011;35079;52.704;13.814;2022-11-20T11:02:21;25.00;;;15.98;;
49241;SDS011;35079;52.704;13.814;2022-11-20T11:04:52;24.00;;;15.63;;
49241;SDS011;35079;52.704;13.814;2022-11-20T11:07:29;25.45;;;16.67;;
49241;SDS011;35079;52.704;13.814;2022-11-20T11:10:00;25.50;;;15.52;;
49241;SDS011;35079;52.704;13.814;2022-11-20T11:12:26;26.40;;;16.42;;
49241;SDS011;35079;52.704;13.814;2022-11-20T11:14:54;27.15;;;16.00;;
49241;SDS011;35079;52.704;13.814;2022-11-20T11:17:23;23.77;;;15.07;;
49241;SDS011;35079;52.704;13.814;2022-11-20T11:22:25;26.27;;;15.88;;
49241;SDS011;35079;52.704;13.814;2022-11-20T11:24:53;25.90;;;15.07;;
49241;SDS011;35079;52.704;13.814;2022-11-20T11:27:19;22.55;;;14.90;;
49241;SDS011;35079;52.704;13.814;2022-11-20T11:29:45;24.13;;;15.77;;
49241;SDS011;35079;52.704;13.814;2022-11-20T11:32:12;23.30;;;15.48;;
49241;SDS011;35079;52.704;13.814;2022-11-20T11:34:38;23.15;;;15.25;;
49241;SDS011;35079;52.704;13.814;2022-11-20T11:37:04;22.55;;;14.93;;
49241;SDS011;35079;52.704;13.814;2022-11-20T11:39:35;24.58;;;15.32;;
49241;SDS011;35079;52.704;13.814;2022-11-20T11:42:07;25.55;;;15.95;;
49241;SDS011;35079;52.704;13.814;2022-11-20T11:44:46;26.73;;;16.20;;
49241;SDS011;35079;52.704;13.814;2022-11-20T11:50:17;22.58;;;14.35;;
49241;SDS011;35079;52.704;13.814;2022-11-20T11:52:46;25.10;;;14.88;;
49241;SDS011;35079;52.704;13.814;2022-11-20T11:55:31;24.38;;;15.18;;
49241;SDS011;35079;52.704;13.814;2022-11-20T11:58:10;23.33;;;14.27;;
49241;SDS011;35079;52.704;13.814;2022-11-20T12:01:01;24.05;;;15.35;;
49241;SDS011;35079;52.704;13.814;2022-11-20T12:03:37;23.20;;;14.27;;
49241;SDS011;35079;52.704;13.814;2022-11-20T12:08:50;25.10;;;14.10;;
49241;SDS011;35079;52.704;13.814;2022-11-20T12:11:25;22.20;;;14.75;;
49241;SDS011;35079;52.704;13.814;2022-11-20T12:19:00;22.45;;;14.02;;
49241;SDS011;35079;52.704;13.814;2022-11-20T12:21:30;23.75;;;14.02;;
49241;SDS011;35079;52.704;13.814;2022-11-20T12:29:43;25.45;;;14.35;;
49241;SDS011;35079;52.704;13.814;2022-11-20T12:37:39;24.45;;;15.23;;
49241;SDS011;35079;52.704;13.814;2022-11-20T12:40:31;22.30;;;14.93;;
49241;SDS011;35079;52.704;13.814;2022-11-20T12:46:12;27.20;;;15.93;;
49241;SDS011;35079;52.704;13.814;2022-11-20T12:48:53;24.60;;;15.77;;
49241;SDS011;35079;52.704;13.814;2022-11-20T13:01:46;26.05;;;14.57;;
49241;SDS011;35079;52.704;13.814;2022-11-20T13:06:41;25.17;;;14.55;;
49241;SDS011;35079;52.704;13.814;2022-11-20T13:09:10;25.15;;;14.75;;
49241;SDS011;35079;52.704;13.814;2022-11-20T13:11:44;21.85;;;14.25;;
49241;SDS011;35079;52.704;13.814;2022-11-20T13:14:33;27.10;;;15.10;;
49241;SDS011;35079;52.704;13.814;2022-11-20T13:17:19;21.13;;;13.63;;
49241;SDS011;35079;52.704;13.814;2022-11-20T13:20:11;21.83;;;13.38;;
49241;SDS011;35079;52.704;13.814;2022-11-20T13:22:44;22.92;;;13.90;;
49241;SDS011;35079;52.704;13.814;2022-11-20T13:27:53;20.92;;;13.07;;
49241;SDS011;35079;52.704;13.814;2022-11-20T13:30:21;21.83;;;13.23;;
49241;SDS011;35079;52.704;13.814;2022-11-20T13:32:54;21.20;;;13.00;;
49241;SDS011;35079;52.704;13.814;2022-11-20T13:35:32;19.63;;;12.95;;
49241;SDS011;35079;52.704;13.814;2022-11-20T13:38:06;20.50;;;12.93;;
49241;SDS011;35079;52.704;13.814;2022-11-20T13:46:06;22.90;;;12.77;;
49241;SDS011;35079;52.704;13.814;2022-11-20T13:48:38;23.90;;;13.05;;
49241;SDS011;35079;52.704;13.814;2022-11-20T13:54:16;20.10;;;11.70;;
49241;SDS011;35079;52.704;13.814;2022-11-20T13:56:50;18.48;;;11.98;;
49241;SDS011;35079;52.704;13.814;2022-11-20T14:02:05;21.95;;;11.88;;
49241;SDS011;35079;52.704;13.814;2022-11-20T14:04:41;20.17;;;12.57;;
49241;SDS011;35079;52.704;13.814;2022-11-20T14:07:11;19.58;;;11.88;;
49241;SDS011;35079;52.704;13.814;2022-11-20T14:09:37;23.25;;;12.32;;
49241;SDS011;35079;52.704;13.814;2022-11-20T14:12:03;19.50;;;11.82;;
49241;SDS011;35079;52.704;13.814;2022-11-20T14:14:47;18.08;;;11.55;;
49241;SDS011;35079;52.704;13.814;2022-11-20T14:19:42;23.90;;;12.23;;
49241;SDS011;35079;52.704;13.814;2022-11-20T14:22:16;19.95;;;12.35;;
49241;SDS011;35079;52.704;13.814;2022-11-20T14:24:47;19.58;;;11.48;;
49241;SDS011;35079;52.704;13.814;2022-11-20T14:27:18;16.63;;;10.65;;
49241;SDS011;35079;52.704;13.814;2022-11-20T14:29:46;20.35;;;11.95;;
49241;SDS011;35079;52.704;13.814;2022-11-20T14:32:15;18.27;;;11.15;;
49241;SDS011;35079;52.704;13.814;2022-11-20T14:34:43;17.40;;;11.73;;
49241;SDS011;35079;52.704;13.814;2022-11-20T14:37:11;19.67;;;12.00;;
49241;SDS011;35079;52.704;13.814;2022-11-20T14:39:42;18.08;;;11.27;;
49241;SDS011;35079;52.704;13.814;2022-11-20T14:42:23;18.25;;;10.68;;
49241;SDS011;35079;52.704;13.814;2022-11-20T14:44:51;17.48;;;11.10;;
49241;SDS011;35079;52.704;13.814;2022-11-20T14:47:21;17.98;;;11.75;;
49241;SDS011;35079;52.704;13.814;2022-11-20T14:49:50;17.73;;;11.23;;
49241;SDS011;35079;52.704;13.814;2022-11-20T14:52:19;17.52;;;10.82;;
49241;SDS011;35079;52.704;13.814;2022-11-20T14:54:47;17.13;;;10.27;;
49241;SDS011;35079;52.704;13.814;2022-11-20T14:57:21;16.92;;;10.20;;
49241;SDS011;35079;52.704;13.814;2022-11-20T15:00:06;19.75;;;11.90;;
49241;SDS011;35079;52.704;13.814;2022-11-20T15:02:39;23.08;;;12.73;;
49241;SDS011;35079;52.704;13.814;2022-11-20T15:05:08;18.60;;;11.57;;
49241;SDS011;35079;52.704;13.814;2022-11-20T15:07:35;19.52;;;12.55;;
49241;SDS011;35079;52.704;13.814;2022-11-20T15:10:07;22.05;;;11.57;;
49241;SDS011;35079;52.704;13.814;2022-11-20T15:12:38;20.52;;;12.50;;
49241;SDS011;35079;52.704;13.814;2022-11-20T15:15:11;19.98;;;12.02;;
49241;SDS011;35079;52.704;13.814;2022-11-20T15:17:39;19.38;;;12.35;;
49241;SDS011;35079;52.704;13.814;2022-11-20T15:23:01;19.30;;;11.40;;
49241;SDS011;35079;52.704;13.814;2022-11-20T15:25:26;18.83;;;11.80;;
49241;SDS011;35079;52.704;13.814;2022-11-20T15:27:54;17.70;;;11.70;;
49241;SDS011;35079;52.704;13.814;2022-11-20T15:30:21;19.35;;;11.65;;
49241;SDS011;35079;52.704;13.814;2022-11-20T15:32:47;17.48;;;12.15;;
49241;SDS011;35079;52.704;13.814;2022-11-20T15:35:14;19.70;;;12.13;;
49241;SDS011;35079;52.704;13.814;2022-11-20T15:37:40;18.95;;;11.20;;
49241;SDS011;35079;52.704;13.814;2022-11-20T15:40:06;20.23;;;12.05;;
49241;SDS011;35079;52.704;13.814;2022-11-20T15:42:33;17.80;;;11.35;;
49241;SDS011;35079;52.704;13.814;2022-11-20T15:44:59;21.67;;;12.30;;
49241;SDS011;35079;52.704;13.814;2022-11-20T15:47:29;22.20;;;11.68;;
49241;SDS011;35079;52.704;13.814;2022-11-20T15:49:57;23.45;;;12.32;;
49241;SDS011;35079;52.704;13.814;2022-11-20T15:52:23;21.33;;;12.32;;
49241;SDS011;35079;52.704;13.814;2022-11-20T15:54:48;18.67;;;11.35;;